»·PEaware :: UAL1209 KSFO-KPHX

UAL1209 :: KSFO-KPHX

FLIGHT INFORMATION

Flight Status: Arrived
Operator:
United Airlines
More flights by this operator :: More flights under this callsign
Pilot: Jac C. (16067)
Aircraft: BOEING 737-800
(B738)
More flights by this aircraft type
Origin: KSFO San Francisco Intl
United States
Destination: KPHX Phoenix Sky Harbor Intl
United States
More flights between these airports :: More routes between these airports
Route: SSTIK4 LOSHN BOILE BLH HYDRR1
File this flight plan on PilotEdge
Remarks: PBN / A1B1C1D1S1S2 DOF / 181111 REG / N806SB EET / KZAK0019 KZLA0026 KZAB0106 OPR / UAL PER / C RMK / TCAS SIMBRIEF
Altitude:
(Current/Filed)
35,000ft
Speed:
(Current/Filed)
447kts
Departed: 11-Nov-18 02:31 PM
Arrived: 11-Nov-18 04:03 PM
Distance/Time
Traveled:
564nm/1:31
Distance/Time
To Go:
Arrived

Flight Plot

Page will automatically refresh every two minutes.

Flight plan parsing failed; only flown route is shown


Map Options




Map Legend


Flown Route
Filed Route
Departure Airport
Arrival Airport
Navaid (VOR, NDB)
Fix

Horizontal Profiles

Position Reports

Time Latitude Longitude Heading Altitude Ground
Speed
11-Nov-18 13:56 37.618935 -122.385948 170 17ft 0kts
11-Nov-18 13:57 37.618935 -122.385948 170 17ft 0kts
11-Nov-18 13:58 37.618935 -122.385948 170 17ft 0kts
11-Nov-18 13:59 37.618935 -122.385948 170 17ft 0kts
11-Nov-18 14:00 37.618935 -122.385948 170 17ft 0kts
11-Nov-18 14:01 37.618935 -122.385948 170 17ft 0kts
11-Nov-18 14:02 37.618935 -122.385948 170 17ft 0kts
11-Nov-18 14:03 37.618935 -122.385948 170 17ft 0kts
11-Nov-18 14:04 37.618935 -122.385948 170 17ft 0kts
11-Nov-18 14:05 37.618935 -122.385948 170 17ft 0kts
11-Nov-18 14:06 37.618935 -122.385948 170 17ft 0kts
11-Nov-18 14:07 37.618935 -122.385948 170 17ft 0kts
11-Nov-18 14:08 37.618935 -122.385948 170 17ft 0kts
11-Nov-18 14:09 37.618935 -122.385948 170 17ft 0kts
11-Nov-18 14:10 37.618935 -122.385948 170 17ft 0kts
11-Nov-18 14:11 37.618935 -122.385948 170 17ft 0kts
11-Nov-18 14:12 37.618935 -122.385948 170 17ft 0kts
11-Nov-18 14:13 37.618935 -122.385948 170 17ft 0kts
11-Nov-18 14:14 37.618935 -122.385948 170 17ft 0kts
11-Nov-18 14:15 37.618935 -122.385948 170 17ft 0kts
11-Nov-18 14:16 37.618935 -122.385948 170 17ft 0kts
11-Nov-18 14:17 37.618935 -122.385948 170 17ft 0kts
11-Nov-18 14:18 37.618935 -122.385948 170 17ft 0kts
11-Nov-18 14:19 37.618935 -122.385948 170 17ft 0kts
11-Nov-18 14:20 37.618935 -122.385948 170 17ft 0kts
11-Nov-18 14:21 37.618935 -122.385948 170 17ft 0kts
11-Nov-18 14:22 37.618935 -122.385948 170 17ft 0kts
11-Nov-18 14:23 37.619114 -122.385977 182 17ft 2kts
11-Nov-18 14:24 37.619619 -122.386014 129 17ft 2kts
11-Nov-18 14:25 37.619876 -122.385425 26 17ft 1kts
11-Nov-18 14:26 37.619882 -122.385421 26 17ft 0kts
11-Nov-18 14:27 37.619882 -122.385421 26 17ft 0kts
11-Nov-18 14:28 37.619984 -122.385357 26 16ft 2kts
11-Nov-18 14:29 37.619993 -122.382787 117 17ft 16kts
11-Nov-18 14:30 37.616487 -122.379727 206 16ft 17kts
11-Nov-18 14:31 37.611570 -122.382973 206 16ft 18kts
11-Nov-18 14:32 37.608504 -122.383960 117 17ft 0kts
11-Nov-18 14:33 37.608245 -122.382706 37 17ft 9kts
11-Nov-18 14:34 37.633894 -122.365965 27 669ft 163kts
11-Nov-18 14:35 37.655205 -122.405830 224 2102ft 237kts
11-Nov-18 14:36 37.590568 -122.436679 195 4250ft 270kts
11-Nov-18 14:37 37.516591 -122.460049 176 6775ft 283kts
11-Nov-18 14:38 37.450292 -122.412046 128 9338ft 290kts
11-Nov-18 14:39 37.398822 -122.332883 127 10010ft 293kts
11-Nov-18 14:40 37.345181 -122.249801 126 11252ft 323kts
11-Nov-18 14:41 37.287549 -122.160780 126 13767ft 337kts
11-Nov-18 14:42 37.227526 -122.068266 125 16322ft 353kts
11-Nov-18 14:43 37.164363 -121.971161 125 18824ft 369kts
11-Nov-18 14:44 37.097938 -121.869332 125 21119ft 386kts
11-Nov-18 14:45 37.029526 -121.764773 125 23204ft 401kts
11-Nov-18 14:46 36.957630 -121.655254 126 25159ft 415kts
11-Nov-18 14:47 36.884285 -121.543915 126 26900ft 428kts
11-Nov-18 14:48 36.807788 -121.428185 126 28487ft 440kts
11-Nov-18 14:49 36.732392 -121.314508 126 30034ft 448kts
11-Nov-18 14:50 36.657717 -121.202240 126 31689ft 447kts
11-Nov-18 14:51 36.578329 -121.083312 126 33128ft 451kts
11-Nov-18 14:52 36.498087 -120.963552 126 34386ft 455kts
11-Nov-18 14:53 36.416713 -120.841754 126 35173ft 470kts
11-Nov-18 14:54 36.330721 -120.713199 126 35157ft 495kts
11-Nov-18 14:55 36.244695 -120.585250 126 35164ft 496kts
11-Nov-18 14:56 36.158022 -120.456835 126 35156ft 496kts
11-Nov-18 14:57 36.074059 -120.332899 127 35175ft 496kts
11-Nov-18 14:58 35.993244 -120.204455 114 35212ft 489kts
11-Nov-18 14:59 35.931835 -120.055064 112 35193ft 488kts
11-Nov-18 15:00 35.871814 -119.908066 112 35191ft 488kts
11-Nov-18 15:01 35.810968 -119.759753 112 35193ft 489kts
11-Nov-18 15:02 35.749406 -119.610385 112 35171ft 492kts
11-Nov-18 15:03 35.689426 -119.465568 112 35171ft 493kts
11-Nov-18 15:04 35.631230 -119.325751 112 35170ft 493kts
11-Nov-18 15:05 35.572680 -119.185432 113 35169ft 492kts
11-Nov-18 15:06 35.510760 -119.037703 113 35156ft 493kts
11-Nov-18 15:07 35.447909 -118.888417 113 35156ft 497kts
11-Nov-18 15:08 35.384173 -118.737755 113 35154ft 500kts
11-Nov-18 15:09 35.320063 -118.586984 113 35174ft 501kts
11-Nov-18 15:10 35.255864 -118.436750 113 35228ft 500kts
11-Nov-18 15:11 35.194131 -118.292853 113 35250ft 500kts
11-Nov-18 15:12 35.129521 -118.142727 113 35250ft 500kts
11-Nov-18 15:13 35.064644 -117.992675 113 35250ft 501kts
11-Nov-18 15:14 35.000301 -117.844563 114 35239ft 497kts
11-Nov-18 15:15 34.936205 -117.697738 114 35237ft 491kts
11-Nov-18 15:16 34.873229 -117.554116 114 35230ft 485kts
11-Nov-18 15:17 34.811629 -117.414214 114 35249ft 486kts
11-Nov-18 15:18 34.748898 -117.272269 115 35252ft 486kts
11-Nov-18 15:19 34.684906 -117.127963 115 35253ft 486kts
11-Nov-18 15:20 34.620725 -116.983858 115 35260ft 492kts
11-Nov-18 15:21 34.555328 -116.837689 115 35270ft 497kts
11-Nov-18 15:22 34.489346 -116.690896 115 35266ft 496kts
11-Nov-18 15:23 34.423341 -116.544686 115 35280ft 497kts
11-Nov-18 15:24 34.357178 -116.398823 115 35294ft 496kts
11-Nov-18 15:25 34.293242 -116.258304 115 35289ft 496kts
11-Nov-18 15:26 34.226624 -116.112383 115 35294ft 496kts
11-Nov-18 15:27 34.159830 -115.966737 115 35295ft 496kts
11-Nov-18 15:28 34.092950 -115.821507 115 35298ft 496kts
11-Nov-18 15:29 34.025744 -115.676291 115 35253ft 496kts
11-Nov-18 15:30 33.958352 -115.531293 115 35178ft 496kts
11-Nov-18 15:31 33.892110 -115.389349 115 35124ft 497kts
11-Nov-18 15:32 33.827446 -115.251239 116 35145ft 498kts
11-Nov-18 15:33 33.759427 -115.106396 116 35163ft 503kts
11-Nov-18 15:34 33.689999 -114.959208 117 35166ft 512kts
11-Nov-18 15:35 33.620496 -114.812706 117 35150ft 489kts
11-Nov-18 15:36 33.574569 -114.663001 92 35165ft 479kts
11-Nov-18 15:37 33.546745 -114.506484 98 34183ft 483kts
11-Nov-18 15:38 33.515535 -114.348126 99 30481ft 497kts
11-Nov-18 15:39 33.488688 -114.212505 99 27535ft 470kts
11-Nov-18 15:40 33.458927 -114.063028 99 25142ft 455kts
11-Nov-18 15:41 33.430277 -113.920458 98 25109ft 440kts
11-Nov-18 15:42 33.401764 -113.778614 98 25111ft 439kts
11-Nov-18 15:43 33.373229 -113.637630 98 25094ft 440kts
11-Nov-18 15:44 33.344281 -113.495555 98 25067ft 439kts
11-Nov-18 15:45 33.318401 -113.352741 96 23530ft 442kts
11-Nov-18 15:46 33.296205 -113.224390 96 22083ft 412kts
11-Nov-18 15:47 33.276812 -113.087960 94 19428ft 418kts
11-Nov-18 15:48 33.276747 -112.961106 82 19031ft 375kts
11-Nov-18 15:49 33.280056 -112.836789 84 17263ft 365kts
11-Nov-18 15:50 33.289806 -112.721346 79 17029ft 347kts
11-Nov-18 15:51 33.300650 -112.606442 79 16028ft 354kts
11-Nov-18 15:52 33.311390 -112.490455 79 14257ft 347kts
11-Nov-18 15:53 33.321346 -112.381356 80 12656ft 317kts
11-Nov-18 15:54 33.330420 -112.282481 81 11256ft 315kts
11-Nov-18 15:55 33.339640 -112.181006 81 10103ft 299kts
11-Nov-18 15:56 33.348068 -112.084333 86 8907ft 296kts
11-Nov-18 15:57 33.346457 -111.987824 90 7512ft 281kts
11-Nov-18 15:58 33.345891 -111.899439 88 6607ft 258kts
11-Nov-18 15:59 33.347297 -111.821852 79 5481ft 220kts
11-Nov-18 16:00 33.393649 -111.795744 357 4460ft 196kts
11-Nov-18 16:01 33.437895 -111.813490 274 4042ft 179kts
11-Nov-18 16:02 33.429853 -111.870761 265 3258ft 157kts
11-Nov-18 16:03 33.428761 -111.918011 269 2478ft 137kts
11-Nov-18 16:04 33.428727 -111.962224 270 1938ft 143kts
11-Nov-18 16:05 33.428854 -112.006937 269 1117ft 117kts
11-Nov-18 16:06 33.430058 -112.016197 42 1116ft 0kts
11-Nov-18 16:07 33.430484 -112.015782 24 1117ft 9kts
11-Nov-18 16:08 33.433121 -112.015287 322 1116ft 6kts
11-Nov-18 16:09 33.434768 -112.014506 103 1116ft 3kts

Navigation Log

Ident Type
Flight plan parsing failed, navigation log unavailable